Time;durP1;ratioP1;P1;durP2;ratioP2;P2;SDS_P1;SDS_P2;PMS_P1;PMS_P2;Temp;Humidity;BMP_temperature;BMP_pressure;BME280_temperature;BME280_humidity;BME280_pressure;Samples;Min_cycle;Max_cycle;Signal;HPM_P1;HPM_P2
2022/05/21 00:00:46;;;;;;;7.20;3.08;;;10.40;99.90;;;;;;4967087;28;20086;-89
2022/05/21 00:03:12;;;;;;;5.00;3.50;;;10.40;99.90;;;;;;4952365;28;20051;-90
2022/05/21 00:05:39;;;;;;;9.93;3.22;;;10.40;99.90;;;;;;4952105;28;20035;-90
2022/05/21 00:08:08;;;;;;;7.47;2.83;;;11.50;99.90;;;;;;4968202;28;20528;-89
2022/05/21 00:10:34;;;;;;;8.18;3.17;;;10.30;99.90;;;;;;4968684;28;20047;-89
2022/05/21 00:13:01;;;;;;;12.13;3.22;;;10.40;99.90;;;;;;4967075;28;20105;-90
2022/05/21 00:15:29;;;;;;;7.90;3.83;;;10.40;99.90;;;;;;4972802;28;20047;-90
2022/05/21 00:17:55;;;;;;;9.55;3.47;;;10.30;99.90;;;;;;4954867;28;20097;-90
2022/05/21 00:23:27;;;;;;;9.23;3.38;;;10.40;99.90;;;;;;4972261;28;20094;-91
2022/05/21 00:26:05;;;;;;;9.02;3.95;;;10.40;99.90;;;;;;4971112;28;20101;-90
2022/05/21 00:28:32;;;;;;;10.60;3.17;;;10.40;99.90;;;;;;4972294;28;20090;-90
2022/05/21 00:30:58;;;;;;;10.10;4.28;;;10.40;99.90;;;;;;4970814;28;20093;-90
2022/05/21 00:33:25;;;;;;;9.23;4.68;;;10.50;99.90;;;;;;4955275;28;20571;-89
2022/05/21 00:35:52;;;;;;;10.13;4.57;;;11.70;99.90;;;;;;4971690;28;20084;-90
2022/05/21 00:38:18;;;;;;;7.55;4.78;;;10.70;99.90;;;;;;4954515;28;20132;-89
2022/05/21 00:40:44;;;;;;;12.30;4.65;;;10.40;99.90;;;;;;4955932;28;20047;-90
2022/05/21 00:43:37;;;;;;;14.30;4.93;;;10.50;99.90;;;;;;4954392;28;20089;-90
2022/05/21 00:46:09;;;;;;;11.57;6.18;;;10.50;99.90;;;;;;4972174;28;20058;-90
2022/05/21 00:48:36;;;;;;;12.48;6.50;;;11.00;99.90;;;;;;4974805;28;20082;-91
2022/05/21 00:51:02;;;;;;;13.65;6.72;;;10.80;99.90;;;;;;4957560;28;20050;-91
2022/05/21 00:53:28;;;;;;;16.63;6.63;;;10.60;99.90;;;;;;4975243;28;20097;-90
2022/05/21 00:55:55;;;;;;;18.92;6.97;;;10.70;99.90;;;;;;4924671;28;20476;-90
2022/05/21 01:01:12;;;;;;;16.27;7.25;;;10.80;99.90;;;;;;4971013;28;20396;-90
2022/05/21 01:03:38;;;;;;;21.55;8.93;;;10.80;99.90;;;;;;4954625;28;20062;-88
2022/05/21 01:06:04;;;;;;;19.35;7.85;;;10.80;99.90;;;;;;4955768;28;20488;-90
2022/05/21 01:08:30;;;;;;;12.57;7.28;;;10.90;99.90;;;;;;4970339;28;20444;-90
2022/05/21 01:11:01;;;;;;;15.60;7.70;;;11.00;99.90;;;;;;4955348;28;20213;-91
2022/05/21 01:13:32;;;;;;;16.50;7.93;;;11.00;99.90;;;;;;4971246;28;20498;-88
2022/05/21 01:15:59;;;;;;;17.77;8.73;;;12.30;99.90;;;;;;4979461;28;20058;-90
2022/05/21 01:18:25;;;;;;;13.40;9.35;;;11.00;99.90;;;;;;4959541;28;20046;-90
2022/05/21 01:20:56;;;;;;;12.18;7.70;;;11.00;99.90;;;;;;4954745;28;20059;-90
2022/05/21 01:23:23;;;;;;;13.07;8.65;;;11.90;99.90;;;;;;4971316;28;20496;-89
2022/05/21 01:25:50;;;;;;;20.38;9.73;;;11.00;99.90;;;;;;4968358;28;20105;-89
2022/05/21 01:28:19;;;;;;;16.08;8.82;;;10.60;99.90;;;;;;4970947;28;20100;-89
2022/05/21 01:30:51;;;;;;;22.52;10.20;;;11.00;99.90;;;;;;4969819;28;20042;-89
2022/05/21 01:33:20;;;;;;;14.88;9.02;;;11.70;99.90;;;;;;4970481;28;20050;-90
2022/05/21 01:35:46;;;;;;;28.08;10.07;;;11.00;99.90;;;;;;4954559;28;20054;-88
2022/05/21 01:38:14;;;;;;;20.52;9.65;;;11.10;99.90;;;;;;4968402;28;20090;-88
2022/05/21 01:40:40;;;;;;;18.75;9.13;;;11.10;99.90;;;;;;4954739;28;20082;-87
2022/05/21 01:45:52;;;;;;;18.83;10.43;;;11.20;99.90;;;;;;4956738;28;20113;-89
2022/05/21 01:48:22;;;;;;;20.63;9.65;;;11.20;99.90;;;;;;4970445;28;20038;-90
2022/05/21 01:50:50;;;;;;;16.65;10.50;;;11.30;99.90;;;;;;4970126;28;20057;-88
2022/05/21 01:53:16;;;;;;;22.70;11.35;;;11.30;99.90;;;;;;4954315;28;20035;-90
2022/05/21 01:55:46;;;;;;;19.60;11.70;;;11.40;99.90;;;;;;4952811;28;20043;-88
2022/05/21 01:58:12;;;;;;;20.02;11.65;;;11.40;99.90;;;;;;4969799;28;20058;-89
2022/05/21 02:00:40;;;;;;;25.77;11.23;;;11.50;99.90;;;;;;4952236;28;20134;-89
2022/05/21 02:03:07;;;;;;;19.15;10.52;;;11.50;99.90;;;;;;4952874;28;20058;-89
2022/05/21 02:05:33;;;;;;;19.48;11.25;;;11.60;99.90;;;;;;4953825;28;20049;-89
2022/05/21 02:07:59;;;;;;;25.05;12.63;;;12.20;99.90;;;;;;4968628;28;20043;-88
2022/05/21 02:10:25;;;;;;;24.23;11.90;;;11.70;99.90;;;;;;4970046;28;20046;-90
2022/05/21 02:12:50;;;;;;;22.23;12.52;;;11.70;99.90;;;;;;4968730;28;20039;-89
2022/05/21 02:15:16;;;;;;;20.50;12.32;;;11.80;99.90;;;;;;4969634;28;20050;-90
2022/05/21 02:17:42;;;;;;;24.60;12.95;;;11.80;99.90;;;;;;4936358;28;20137;-90
2022/05/21 02:20:08;;;;;;;20.60;12.20;;;11.80;99.90;;;;;;4937537;28;20043;-88
2022/05/21 02:22:36;;;;;;;19.27;11.70;;;11.90;99.90;;;;;;4953245;28;20046;-90
2022/05/21 02:25:03;;;;;;;26.85;12.50;;;11.90;99.90;;;;;;4952505;28;20050;-90
2022/05/21 02:27:29;;;;;;;19.23;11.60;;;11.90;99.90;;;;;;4953910;28;20435;-88
2022/05/21 02:29:55;;;;;;;23.88;12.52;;;12.00;99.90;;;;;;4968344;28;20043;-89
2022/05/21 02:32:20;;;;;;;20.70;11.73;;;12.00;99.90;;;;;;4953476;28;20054;-90
2022/05/21 02:34:46;;;;;;;21.42;13.68;;;12.10;99.90;;;;;;4968625;28;20133;-90
2022/05/21 02:39:56;;;;;;;30.25;12.77;;;12.10;99.90;;;;;;4969254;28;20058;-88
2022/05/21 02:45:07;;;;;;;22.17;11.80;;;12.20;99.90;;;;;;4955585;28;20142;-90
2022/05/21 02:47:33;;;;;;;22.00;13.05;;;12.20;99.90;;;;;;4951662;28;20105;-88
2022/05/21 02:49:58;;;;;;;17.70;11.85;;;12.30;99.90;;;;;;4936924;28;20042;-89
2022/05/21 02:52:24;;;;;;;19.70;12.15;;;12.20;99.90;;;;;;4936155;28;20069;-89
2022/05/21 02:54:50;;;;;;;20.73;11.10;;;12.30;99.90;;;;;;4967981;28;20042;-90
2022/05/21 02:57:16;;;;;;;30.48;11.80;;;12.40;99.90;;;;;;4953268;28;20058;-89
2022/05/21 02:59:42;;;;;;;20.75;11.45;;;12.40;99.90;;;;;;4967910;28;20516;-90
2022/05/21 03:02:08;;;;;;;24.60;10.82;;;12.40;99.90;;;;;;4969092;28;20403;-89
2022/05/21 03:04:33;;;;;;;16.20;10.27;;;12.50;99.90;;;;;;4950954;28;20046;-89
2022/05/21 03:06:59;;;;;;;23.50;10.43;;;12.50;99.90;;;;;;4968849;28;20039;-90
2022/05/21 03:12:10;;;;;;;19.20;8.68;;;12.50;99.90;;;;;;4967256;28;20511;-90
2022/05/21 03:14:36;;;;;;;17.08;8.15;;;12.50;99.90;;;;;;4969020;28;20391;-89
2022/05/21 03:17:02;;;;;;;25.67;7.30;;;12.80;99.90;;;;;;4951178;28;20038;-89
2022/05/21 03:19:30;;;;;;;23.75;7.25;;;12.60;99.90;;;;;;4952046;28;20070;-89
2022/05/21 03:21:57;;;;;;;16.50;6.13;;;13.20;99.90;;;;;;4967442;28;20116;-90
2022/05/21 03:24:23;;;;;;;30.00;6.65;;;12.70;99.90;;;;;;4968243;28;20439;-89
2022/05/21 03:26:48;;;;;;;19.50;5.40;;;12.70;99.90;;;;;;4952247;28;20051;-90
2022/05/21 03:29:14;;;;;;;10.35;5.22;;;13.10;99.90;;;;;;4935644;28;20101;-90
2022/05/21 03:31:40;;;;;;;17.20;5.40;;;12.80;99.90;;;;;;4921909;28;20053;-89
2022/05/21 03:34:06;;;;;;;16.02;5.03;;;12.80;99.90;;;;;;4966967;28;20223;-90
2022/05/21 03:36:32;;;;;;;15.23;5.13;;;12.90;99.90;;;;;;4968364;28;20047;-89
2022/05/21 03:38:58;;;;;;;16.50;4.85;;;12.90;99.90;;;;;;4966625;28;20058;-89
2022/05/21 03:41:26;;;;;;;19.67;4.85;;;12.90;99.90;;;;;;4967549;28;20053;-89
2022/05/21 03:43:52;;;;;;;24.15;5.10;;;12.90;99.90;;;;;;4968217;28;20042;-90
2022/05/21 03:46:18;;;;;;;11.45;4.15;;;12.90;99.90;;;;;;4951244;28;20050;-89
2022/05/21 03:48:45;;;;;;;12.32;4.28;;;12.90;99.90;;;;;;4951836;28;20050;-88
2022/05/21 03:51:11;;;;;;;17.58;4.43;;;13.00;99.90;;;;;;4950249;28;20050;-89
2022/05/21 03:53:36;;;;;;;15.60;3.38;;;13.50;99.90;;;;;;4951744;28;20117;-90
2022/05/21 03:56:03;;;;;;;14.30;3.42;;;13.60;99.90;;;;;;4951152;28;20125;-90
2022/05/21 03:58:29;;;;;;;17.35;3.58;;;13.00;99.90;;;;;;4952610;28;20074;-89
2022/05/21 04:00:55;;;;;;;13.50;3.58;;;13.00;99.90;;;;;;4935739;28;20524;-90
2022/05/21 04:03:21;;;;;;;14.98;3.85;;;13.00;99.90;;;;;;4935136;28;20043;-90
2022/05/21 04:05:47;;;;;;;9.80;2.47;;;13.10;99.90;;;;;;4968514;28;20074;-89
2022/05/21 04:08:15;;;;;;;14.60;3.60;;;13.10;99.90;;;;;;4968216;28;20051;-89
2022/05/21 04:10:40;;;;;;;11.23;3.50;;;13.10;99.90;;;;;;4952496;28;20408;-89
2022/05/21 04:13:06;;;;;;;13.02;3.45;;;13.10;99.90;;;;;;4950337;28;20051;-89
2022/05/21 04:15:33;;;;;;;21.98;3.67;;;13.10;99.90;;;;;;4919623;28;20043;-89
2022/05/21 04:17:59;;;;;;;11.82;2.95;;;13.10;99.90;;;;;;4936001;28;20404;-89
2022/05/21 04:20:25;;;;;;;12.52;2.80;;;13.20;99.90;;;;;;4966859;28;20039;-89
2022/05/21 04:22:51;;;;;;;16.27;3.30;;;13.30;99.90;;;;;;4951832;28;20137;-89
2022/05/21 04:25:17;;;;;;;15.43;3.30;;;13.20;99.90;;;;;;4966284;28;20188;-89
2022/05/21 04:27:43;;;;;;;13.25;3.25;;;13.20;99.90;;;;;;4967937;28;20416;-89
2022/05/21 04:30:14;;;;;;;13.77;2.50;;;14.00;99.90;;;;;;4966663;28;20126;-90
2022/05/21 04:32:40;;;;;;;15.43;3.25;;;13.20;99.90;;;;;;4951742;28;20799;-89
2022/05/21 04:35:06;;;;;;;12.00;2.20;;;14.40;99.90;;;;;;4967370;28;20046;-89
2022/05/21 04:37:36;;;;;;;16.10;3.08;;;13.20;99.90;;;;;;4950665;28;20496;-89
2022/05/21 04:40:02;;;;;;;7.45;2.33;;;13.30;99.90;;;;;;4951868;28;20101;-90
2022/05/21 04:42:28;;;;;;;13.50;2.80;;;13.30;99.90;;;;;;4934596;28;20377;-88
2022/05/21 04:44:54;;;;;;;8.30;1.95;;;13.30;99.90;;;;;;4967706;28;20083;-89
2022/05/21 04:47:19;;;;;;;8.32;1.85;;;13.30;99.90;;;;;;4933955;28;20109;-88
2022/05/21 04:49:45;;;;;;;10.57;2.25;;;13.30;99.90;;;;;;4967364;28;20046;-89
2022/05/21 04:52:11;;;;;;;8.07;1.88;;;13.20;99.90;;;;;;4966813;28;20045;-89
2022/05/21 04:54:37;;;;;;;10.75;2.25;;;13.20;99.90;;;;;;4950329;28;20058;-88
2022/05/21 04:57:04;;;;;;;12.57;2.03;;;13.40;99.90;;;;;;4951464;28;20119;-89
2022/05/21 04:59:30;;;;;;;12.68;1.48;;;13.30;99.90;;;;;;4965654;28;20050;-88
2022/05/21 05:01:56;;;;;;;9.45;2.05;;;13.40;99.90;;;;;;4953220;28;20093;-89
2022/05/21 05:04:22;;;;;;;16.70;2.80;;;13.30;99.90;;;;;;4937637;28;20050;-89
2022/05/21 05:06:48;;;;;;;11.23;1.98;;;13.30;99.90;;;;;;4938465;28;20053;-88
2022/05/21 05:09:15;;;;;;;16.33;2.83;;;13.40;99.90;;;;;;4954449;28;20047;-89
2022/05/21 05:11:42;;;;;;;9.80;2.25;;;13.40;99.90;;;;;;4953504;28;20043;-88
2022/05/21 05:14:08;;;;;;;11.02;2.13;;;13.30;99.90;;;;;;4938455;28;20043;-88
2022/05/21 05:16:33;;;;;;;9.80;1.83;;;13.40;99.90;;;;;;4937404;28;20373;-88
2022/05/21 05:18:59;;;;;;;12.68;2.17;;;13.40;99.90;;;;;;4954184;28;20042;-88
2022/05/21 05:21:25;;;;;;;6.03;1.40;;;13.40;99.90;;;;;;4936921;28;20525;-89
2022/05/21 05:23:50;;;;;;;7.97;1.70;;;13.40;99.90;;;;;;4970215;28;20133;-88
2022/05/21 05:26:16;;;;;;;12.95;1.80;;;14.10;99.90;;;;;;4953483;28;20432;-87
2022/05/21 05:28:42;;;;;;;10.25;2.03;;;13.40;99.90;;;;;;4969013;28;20054;-87
2022/05/21 05:31:08;;;;;;;5.78;1.60;;;13.50;99.90;;;;;;4922080;28;20387;-87
2022/05/21 05:33:34;;;;;;;8.48;1.80;;;13.50;99.90;;;;;;4952531;28;20065;-88
2022/05/21 05:36:00;;;;;;;8.25;1.75;;;13.60;99.90;;;;;;4953709;28;20086;-87
2022/05/21 05:38:26;;;;;;;13.57;1.98;;;13.60;99.90;;;;;;4936132;28;20050;-87
2022/05/21 05:40:52;;;;;;;10.88;2.63;;;13.80;99.90;;;;;;4969807;28;20058;-86
2022/05/21 05:43:20;;;;;;;7.70;1.63;;;13.60;99.90;;;;;;4969431;28;20066;-87
2022/05/21 05:45:53;;;;;;;8.48;1.40;;;13.70;99.90;;;;;;4969291;28;20412;-88
2022/05/21 05:48:21;;;;;;;14.23;1.80;;;13.70;99.90;;;;;;4970684;28;20055;-87
2022/05/21 05:50:47;;;;;;;7.80;1.50;;;13.70;99.90;;;;;;4953176;28;20047;-87
2022/05/21 05:53:13;;;;;;;9.98;2.08;;;13.80;99.90;;;;;;4969640;28;20045;-88
2022/05/21 05:55:41;;;;;;;7.28;1.90;;;13.80;99.90;;;;;;4952227;28;20043;-88
2022/05/21 06:00:52;;;;;;;6.90;1.25;;;13.80;99.90;;;;;;4956042;28;20082;-88
2022/05/21 06:03:21;;;;;;;8.93;1.48;;;13.80;99.90;;;;;;4967870;28;20050;-84
2022/05/21 06:05:51;;;;;;;16.08;1.77;;;13.80;99.90;;;;;;4953060;28;20042;-86
2022/05/21 06:08:17;;;;;;;12.90;2.08;;;13.90;99.90;;;;;;4967947;28;20356;-86
2022/05/21 06:10:45;;;;;;;11.82;1.98;;;13.90;99.90;;;;;;4968919;28;20043;-88
2022/05/21 06:13:11;;;;;;;14.70;2.22;;;14.00;99.90;;;;;;4968032;28;20396;-87
2022/05/21 06:15:38;;;;;;;12.00;1.60;;;14.00;99.90;;;;;;4952282;28;20058;-86
2022/05/21 06:18:16;;;;;;;9.23;1.30;;;14.00;99.90;;;;;;4953298;28;20157;-85
2022/05/21 06:20:44;;;;;;;9.10;1.58;;;14.00;99.90;;;;;;4969228;28;20467;-86
2022/05/21 06:23:12;;;;;;;9.52;2.30;;;14.00;99.90;;;;;;4967811;28;20054;-85
2022/05/21 06:25:38;;;;;;;8.90;1.42;;;14.00;99.90;;;;;;4967274;28;20492;-86
2022/05/21 06:28:05;;;;;;;7.50;1.75;;;14.10;99.90;;;;;;4952259;28;20051;-86
2022/05/21 06:30:36;;;;;;;11.15;1.70;;;14.30;99.90;;;;;;4921912;28;20134;-86
2022/05/21 06:33:12;;;;;;;9.65;2.20;;;14.40;99.90;;;;;;4967310;28;20137;-85
2022/05/21 06:35:38;;;;;;;10.45;1.60;;;14.60;99.90;;;;;;4968919;28;20077;-87
2022/05/21 06:38:10;;;;;;;12.73;2.28;;;14.70;99.90;;;;;;4967041;28;20853;-87
2022/05/21 06:40:35;;;;;;;9.80;1.65;;;14.50;99.90;;;;;;4937237;28;20441;-86
2022/05/21 06:43:01;;;;;;;8.05;1.67;;;15.00;99.90;;;;;;4968116;28;20142;-89
2022/05/21 06:45:29;;;;;;;13.02;1.75;;;15.00;99.90;;;;;;4921133;28;20424;-90
2022/05/21 06:48:03;;;;;;;8.95;1.48;;;15.00;99.90;;;;;;4970374;28;20320;-93
2022/05/21 06:50:30;;;;;;;11.93;1.38;;;14.90;99.90;;;;;;4968395;28;20412;-90
2022/05/21 06:52:56;;;;;;;8.63;1.33;;;14.80;99.90;;;;;;4970850;28;20047;-91
2022/05/21 06:55:22;;;;;;;8.23;1.60;;;14.70;99.90;;;;;;4969709;28;20050;-91
2022/05/21 06:57:49;;;;;;;9.45;2.42;;;14.70;99.90;;;;;;4953804;28;20404;-91
2022/05/21 07:00:16;;;;;;;8.60;1.75;;;14.70;99.90;;;;;;4953023;28;20140;-92
2022/05/21 07:02:43;;;;;;;8.93;2.17;;;14.70;99.90;;;;;;4936241;28;20047;-89
2022/05/21 07:07:53;;;;;;;6.47;2.30;;;14.90;99.90;;;;;;4966737;28;20046;-89
2022/05/21 07:10:24;;;;;;;13.70;2.47;;;15.00;99.90;;;;;;4952160;28;20046;-88
2022/05/21 07:12:50;;;;;;;7.25;1.52;;;15.10;99.90;;;;;;4951160;28;20356;-88
2022/05/21 07:15:17;;;;;;;5.65;1.27;;;15.30;99.90;;;;;;4967959;28;20384;-90
2022/05/21 07:17:44;;;;;;;7.05;1.75;;;15.30;99.90;;;;;;4968017;28;20049;-88
2022/05/21 07:20:15;;;;;;;6.38;1.50;;;15.30;99.90;;;;;;4951095;28;20455;-87
2022/05/21 07:22:45;;;;;;;9.00;1.30;;;15.30;99.90;;;;;;4968006;28;20047;-88
2022/05/21 07:25:14;;;;;;;10.00;1.55;;;15.30;99.90;;;;;;4966024;28;20191;-86
2022/05/21 07:27:40;;;;;;;8.30;1.63;;;15.20;99.90;;;;;;4967866;28;20054;-88
2022/05/21 07:30:07;;;;;;;6.97;1.50;;;15.20;99.90;;;;;;4966832;28;20054;-87
2022/05/21 07:32:33;;;;;;;7.40;1.98;;;15.20;99.90;;;;;;4967275;28;20419;-86
2022/05/21 07:35:15;;;;;;;8.48;1.73;;;15.30;99.90;;;;;;4968136;28;20080;-85
2022/05/21 07:37:40;;;;;;;6.15;1.52;;;15.50;99.90;;;;;;4949952;28;20133;-85
2022/05/21 07:40:08;;;;;;;9.10;2.17;;;15.60;99.90;;;;;;4951618;28;20133;-86
2022/05/21 07:42:36;;;;;;;10.82;2.42;;;15.70;99.90;;;;;;4966564;28;20155;-86
2022/05/21 07:45:02;;;;;;;9.75;1.67;;;15.70;99.90;;;;;;4967178;28;20039;-86
2022/05/21 07:47:28;;;;;;;10.90;1.92;;;15.90;99.90;;;;;;4967404;28;20039;-85
2022/05/21 07:49:57;;;;;;;8.23;1.95;;;16.00;99.90;;;;;;4951119;28;20377;-85
2022/05/21 07:52:28;;;;;;;11.57;1.83;;;16.00;99.90;;;;;;4967785;28;20344;-86
2022/05/21 07:54:54;;;;;;;10.93;1.77;;;16.00;99.90;;;;;;4966446;28;20039;-87
2022/05/21 07:57:20;;;;;;;10.90;2.33;;;16.00;99.90;;;;;;4967889;28;20051;-85
2022/05/21 07:59:46;;;;;;;4.75;1.08;;;16.10;99.90;;;;;;4950837;28;20508;-86
2022/05/21 08:02:15;;;;;;;9.38;1.58;;;16.40;99.90;;;;;;4951295;28;20485;-85
2022/05/21 08:04:46;;;;;;;12.52;1.63;;;16.50;99.90;;;;;;4951412;28;20039;-85
2022/05/21 08:07:12;;;;;;;9.77;2.17;;;16.40;99.90;;;;;;4965975;28;20079;-87
2022/05/21 08:09:38;;;;;;;8.07;1.52;;;16.30;99.90;;;;;;4968180;28;20039;-86
2022/05/21 08:12:05;;;;;;;9.25;1.88;;;16.40;99.90;;;;;;4966023;28;20507;-86
2022/05/21 08:14:32;;;;;;;8.10;1.52;;;16.50;99.90;;;;;;4951685;28;20130;-87
2022/05/21 08:16:58;;;;;;;6.90;1.40;;;16.60;99.90;;;;;;4966294;28;20526;-88
2022/05/21 08:19:24;;;;;;;8.40;1.55;;;16.80;99.90;;;;;;4950635;28;20443;-87
2022/05/21 08:21:49;;;;;;;8.90;1.83;;;16.90;99.90;;;;;;4967361;28;20043;-87
2022/05/21 08:27:01;;;;;;;6.28;1.40;;;16.90;99.90;;;;;;4967623;28;20061;-85
2022/05/21 08:29:33;;;;;;;9.00;1.35;;;16.90;99.90;;;;;;4966999;28;20130;-84
2022/05/21 08:32:00;;;;;;;12.93;1.85;;;17.20;99.90;;;;;;4968553;28;20046;-86
2022/05/21 08:34:27;;;;;;;8.07;0.88;;;17.50;99.90;;;;;;4968551;28;20396;-86
2022/05/21 08:36:53;;;;;;;7.78;2.28;;;17.50;99.90;;;;;;4970077;28;20442;-83
2022/05/21 08:39:20;;;;;;;8.75;1.40;;;17.30;99.90;;;;;;4971999;28;20054;-81
2022/05/21 08:41:48;;;;;;;7.68;1.65;;;17.10;99.90;;;;;;4971323;28;20078;-80
2022/05/21 08:44:38;;;;;;;8.60;1.33;;;17.00;99.90;;;;;;4972301;28;20043;-82
2022/05/21 08:47:22;;;;;;;7.82;1.92;;;17.00;99.90;;;;;;4969778;28;20051;-81
2022/05/21 08:50:02;;;;;;;7.32;1.17;;;17.00;99.90;;;;;;4970953;28;20126;-78
2022/05/21 08:52:46;;;;;;;8.80;1.40;;;17.00;99.90;;;;;;4972300;28;20047;-79
2022/05/21 08:55:29;;;;;;;8.18;1.50;;;17.10;99.90;;;;;;4969649;28;20038;-79
2022/05/21 08:58:00;;;;;;;8.60;1.70;;;17.30;99.90;;;;;;4971763;28;20047;-80
2022/05/21 09:00:35;;;;;;;11.45;2.33;;;17.20;99.90;;;;;;4972244;28;20081;-79
2022/05/21 09:03:06;;;;;;;4.75;1.30;;;17.30;99.90;;;;;;4969563;28;20082;-80
2022/05/21 09:05:32;;;;;;;6.05;1.35;;;17.30;99.90;;;;;;4970883;28;20047;-81
2022/05/21 09:08:10;;;;;;;8.68;1.38;;;17.10;99.90;;;;;;4968893;28;20500;-79
2022/05/21 09:11:06;;;;;;;6.50;1.67;;;17.00;99.90;;;;;;4970501;28;20444;-78
2022/05/21 09:13:52;;;;;;;9.52;1.30;;;17.00;99.90;;;;;;4985710;28;20419;-81
2022/05/21 09:19:06;;;;;;;9.80;1.35;;;17.20;99.90;;;;;;4969829;28;20139;-83
2022/05/21 09:21:34;;;;;;;6.53;0.95;;;17.30;99.90;;;;;;4970348;28;20050;-84
2022/05/21 09:24:03;;;;;;;8.52;1.10;;;17.30;99.90;;;;;;4969590;28;20473;-84
2022/05/21 09:26:42;;;;;;;11.50;1.80;;;17.40;99.90;;;;;;4970029;28;20047;-85
2022/05/21 09:29:29;;;;;;;11.90;1.65;;;17.50;99.90;;;;;;4968547;28;20042;-86
2022/05/21 09:31:56;;;;;;;8.85;1.60;;;17.40;99.90;;;;;;4970118;28;20448;-83
2022/05/21 09:34:31;;;;;;;6.53;1.60;;;17.40;99.90;;;;;;4953588;28;20047;-83
2022/05/21 09:36:58;;;;;;;9.05;1.48;;;17.60;99.90;;;;;;4968776;28;20058;-82
2022/05/21 09:39:33;;;;;;;6.72;0.98;;;17.70;99.90;;;;;;4953866;28;20141;-84
2022/05/21 09:45:22;;;;;;;5.30;1.35;;;17.90;99.90;;;;;;4970402;28;20138;-84
2022/05/21 09:48:11;;;;;;;7.90;1.27;;;17.70;99.90;;;;;;4970096;28;20130;-81
2022/05/21 09:50:47;;;;;;;6.15;0.90;;;17.70;99.90;;;;;;4969165;28;20133;-81
2022/05/21 09:53:23;;;;;;;4.88;1.10;;;17.70;99.90;;;;;;4970690;28;20046;-80
2022/05/21 09:55:59;;;;;;;8.25;1.35;;;17.60;99.90;;;;;;4969001;28;20049;-82
2022/05/21 09:58:26;;;;;;;7.95;1.10;;;17.60;99.90;;;;;;4967811;28;20082;-80
2022/05/21 10:00:57;;;;;;;6.43;0.82;;;17.50;99.90;;;;;;4969539;28;20051;-80
2022/05/21 10:03:50;;;;;;;4.72;1.02;;;17.60;99.90;;;;;;4968366;28;20534;-80
2022/05/21 10:06:21;;;;;;;4.83;1.13;;;17.70;99.90;;;;;;4968881;28;20042;-81
2022/05/21 10:11:49;;;;;;;13.02;1.15;;;17.90;99.90;;;;;;4968229;28;20058;-78
2022/05/21 10:14:22;;;;;;;10.80;1.40;;;17.80;99.90;;;;;;4970559;28;20050;-80
2022/05/21 10:16:54;;;;;;;5.25;0.88;;;17.80;99.90;;;;;;4968215;28;20082;-81
2022/05/21 10:19:32;;;;;;;3.80;0.82;;;17.60;99.90;;;;;;4969818;28;20464;-79
2022/05/21 10:22:26;;;;;;;3.92;0.90;;;17.50;99.90;;;;;;4970590;28;20623;-80
2022/05/21 10:24:59;;;;;;;6.55;1.05;;;17.30;99.90;;;;;;4969543;28;20035;-81
2022/05/21 10:27:43;;;;;;;8.82;1.05;;;17.50;99.90;;;;;;4970286;28;20047;-79
2022/05/21 10:30:27;;;;;;;6.13;1.17;;;17.70;99.90;;;;;;4969024;28;20131;-80
2022/05/21 10:33:08;;;;;;;6.95;1.05;;;17.70;99.90;;;;;;4951412;28;20051;-79
2022/05/21 10:36:01;;;;;;;3.22;0.70;;;17.80;99.90;;;;;;4968455;28;20553;-80
2022/05/21 10:38:51;;;;;;;5.72;0.90;;;17.90;99.90;;;;;;4967855;28;20054;-80
2022/05/21 10:41:51;;;;;;;6.13;1.25;;;17.90;99.90;;;;;;4967819;28;20059;-82
2022/05/21 10:44:36;;;;;;;8.13;1.25;;;18.10;99.90;;;;;;4968301;28;20051;-81
2022/05/21 10:47:24;;;;;;;5.65;1.20;;;18.30;99.90;;;;;;4951366;28;20046;-81
2022/05/21 10:50:16;;;;;;;4.18;1.00;;;18.30;99.90;;;;;;4968512;28;20502;-81
2022/05/21 10:52:51;;;;;;;8.52;1.02;;;18.60;99.90;;;;;;4968145;28;20555;-81
2022/05/21 10:55:24;;;;;;;3.92;0.90;;;18.80;99.90;;;;;;4951406;28;20102;-81
2022/05/21 10:58:19;;;;;;;7.97;1.00;;;19.10;99.90;;;;;;4967516;28;20043;-80
2022/05/21 11:01:25;;;;;;;8.57;1.20;;;19.50;99.90;;;;;;4951690;28;20055;-84
2022/05/21 11:04:12;;;;;;;9.45;1.45;;;19.80;99.90;;;;;;4951654;28;20053;-82
2022/05/21 11:06:47;;;;;;;11.25;1.52;;;19.50;99.90;;;;;;4967108;28;20140;-82
2022/05/21 11:09:22;;;;;;;4.70;1.10;;;19.40;99.90;;;;;;4968569;28;20154;-82
2022/05/21 11:12:11;;;;;;;3.50;0.95;;;19.10;99.90;;;;;;4951006;28;20055;-80
2022/05/21 11:14:50;;;;;;;7.05;1.05;;;18.80;99.90;;;;;;4968006;28;20412;-79
2022/05/21 11:17:18;;;;;;;10.15;1.40;;;18.50;99.90;;;;;;4952031;28;20038;-80
2022/05/21 11:20:00;;;;;;;5.03;1.00;;;18.40;99.90;;;;;;4950968;28;20062;-79
2022/05/21 11:22:47;;;;;;;3.60;0.68;;;18.60;99.90;;;;;;4951809;28;20051;-79
2022/05/21 11:25:20;;;;;;;4.30;0.70;;;18.90;99.90;;;;;;4967487;28;20581;-79
2022/05/21 11:27:57;;;;;;;5.63;0.98;;;19.20;99.90;;;;;;4967471;28;20527;-80
2022/05/21 11:30:23;;;;;;;4.38;0.70;;;19.60;99.90;;;;;;4967780;28;20093;-79
2022/05/21 11:38:49;;;;;;;5.88;1.30;;;20.30;99.90;;;;;;4967547;28;20109;-80
2022/05/21 11:41:30;;;;;;;4.15;0.70;;;20.50;99.90;;;;;;4966769;28;20067;-80
2022/05/21 11:47:14;;;;;;;8.20;1.02;;;19.90;99.80;;;;;;4967107;28;20159;-79
2022/05/21 11:49:44;;;;;;;6.82;1.33;;;19.90;99.20;;;;;;4950314;28;20464;-79
2022/05/21 11:52:31;;;;;;;4.35;1.23;;;19.90;99.90;;;;;;4967884;28;20054;-80
2022/05/21 11:54:56;;;;;;;3.97;0.90;;;20.10;99.10;;;;;;4966367;28;20061;-78
2022/05/21 11:57:36;;;;;;;6.75;1.40;;;20.10;99.90;;;;;;4951206;28;20137;-78
2022/05/21 12:00:08;;;;;;;4.55;0.90;;;20.30;99.50;;;;;;4967317;28;20101;-80
2022/05/21 12:02:58;;;;;;;7.45;0.93;;;20.40;99.70;;;;;;4966069;28;20054;-77
2022/05/21 12:05:44;;;;;;;3.10;1.00;;;20.60;99.90;;;;;;4967243;28;20047;-78
2022/05/21 12:08:43;;;;;;;8.25;1.20;;;21.00;96.10;;;;;;4951560;28;20471;-78
2022/05/21 12:11:34;;;;;;;7.82;0.90;;;21.30;96.10;;;;;;4968870;28;20057;-77
2022/05/21 12:14:25;;;;;;;6.25;1.27;;;21.40;80.40;;;;;;4972976;28;20117;-78
2022/05/21 12:16:54;;;;;;;7.93;1.48;;;21.50;93.30;;;;;;4970824;28;20047;-79
2022/05/21 12:19:49;;;;;;;5.32;2.03;;;21.40;97.60;;;;;;4971989;28;20101;-78
2022/05/21 12:22:41;;;;;;;8.02;1.77;;;21.60;97.50;;;;;;4972677;28;20057;-79
2022/05/21 12:25:13;;;;;;;11.75;2.08;;;21.70;97.40;;;;;;4971812;28;20112;-78
2022/05/21 12:27:56;;;;;;;8.80;1.45;;;21.60;99.30;;;;;;4970349;28;20054;-77
2022/05/21 12:30:29;;;;;;;13.63;1.65;;;21.50;98.00;;;;;;4971140;28;20055;-78
2022/05/21 12:32:55;;;;;;;8.45;1.40;;;21.70;96.60;;;;;;4953930;28;20230;-77
2022/05/21 12:35:23;;;;;;;6.40;1.35;;;21.90;99.20;;;;;;4970574;28;20055;-79
2022/05/21 12:37:55;;;;;;;5.72;1.60;;;22.10;98.70;;;;;;4970109;28;20130;-78
2022/05/21 12:40:42;;;;;;;5.75;1.27;;;22.30;97.60;;;;;;4970683;28;20115;-78
2022/05/21 12:43:10;;;;;;;7.32;1.83;;;22.30;94.40;;;;;;4970715;28;20101;-79
2022/05/21 12:45:47;;;;;;;6.72;1.52;;;22.10;95.70;;;;;;4969899;28;20672;-78
2022/05/21 12:48:19;;;;;;;4.47;0.80;;;21.90;91.90;;;;;;4970854;28;20065;-78
2022/05/21 12:51:01;;;;;;;4.50;0.82;;;21.50;93.20;;;;;;4970329;28;20377;-79
2022/05/21 12:53:28;;;;;;;6.13;0.70;;;21.20;91.60;;;;;;4953613;28;20050;-81
2022/05/21 12:56:00;;;;;;;5.68;0.80;;;21.00;95.30;;;;;;4954497;28;20058;-78
2022/05/21 12:58:26;;;;;;;5.97;0.98;;;20.90;91.50;;;;;;4970738;28;20110;-79
2022/05/21 13:00:55;;;;;;;3.92;0.90;;;21.10;95.00;;;;;;4970302;28;20521;-80
2022/05/21 13:03:23;;;;;;;2.35;0.68;;;21.30;93.90;;;;;;4969387;28;20047;-79
2022/05/21 13:05:59;;;;;;;4.63;0.80;;;21.20;91.70;;;;;;4954319;28;20042;-78
2022/05/21 13:08:27;;;;;;;3.08;1.15;;;21.00;91.80;;;;;;4954310;28;20050;-78
2022/05/21 13:11:06;;;;;;;3.42;0.60;;;20.80;93.50;;;;;;4953045;28;20050;-79
2022/05/21 13:13:37;;;;;;;3.53;0.40;;;20.60;90.10;;;;;;4971915;28;20051;-78
2022/05/21 13:16:05;;;;;;;4.07;0.70;;;20.50;93.80;;;;;;4970305;28;20035;-79
2022/05/21 13:18:49;;;;;;;2.47;0.57;;;20.70;92.10;;;;;;4971290;28;20129;-78
2022/05/21 13:21:33;;;;;;;5.95;0.82;;;20.90;83.90;;;;;;4970903;28;20408;-78
2022/05/21 13:24:20;;;;;;;4.57;0.70;;;21.20;91.70;;;;;;4968718;28;20047;-78
2022/05/21 13:27:02;;;;;;;4.28;0.85;;;21.10;87.50;;;;;;4971357;28;20058;-77
2022/05/21 13:29:29;;;;;;;5.97;1.03;;;21.00;91.80;;;;;;4969733;28;20050;-78
2022/05/21 13:31:55;;;;;;;8.18;1.25;;;20.80;94.00;;;;;;4969413;28;20405;-78
2022/05/21 13:34:26;;;;;;;8.48;1.30;;;20.60;94.20;;;;;;4953996;28;20046;-77
2022/05/21 13:36:56;;;;;;;3.90;0.98;;;20.70;94.60;;;;;;4968437;28;20047;-79
2022/05/21 13:39:33;;;;;;;7.53;1.13;;;20.80;94.50;;;;;;4969365;28;20168;-77
2022/05/21 13:42:05;;;;;;;5.00;1.40;;;20.80;93.10;;;;;;4968735;28;20054;-78